sensor_id;sensor_type;location;lat;lon;timestamp;P1;durP1;ratioP1;P2;durP2;ratioP2
22017;SDS011;11173;51.050;7.108;2024-02-28T00:07:29;4.60;;;4.13;;
22017;SDS011;11173;51.050;7.108;2024-02-28T00:17:51;16.92;;;11.02;;
22017;SDS011;11173;51.050;7.108;2024-02-28T00:28:10;15.32;;;11.25;;
22017;SDS011;11173;51.050;7.108;2024-02-28T00:38:29;11.27;;;9.47;;
22017;SDS011;11173;51.050;7.108;2024-02-28T00:48:47;11.00;;;8.85;;
22017;SDS011;11173;51.050;7.108;2024-02-28T00:59:06;4.65;;;4.25;;
22017;SDS011;11173;51.050;7.108;2024-02-28T01:09:28;5.03;;;4.53;;
22017;SDS011;11173;51.050;7.108;2024-02-28T01:19:47;7.22;;;6.35;;
22017;SDS011;11173;51.050;7.108;2024-02-28T01:30:07;24.77;;;13.43;;
22017;SDS011;11173;51.050;7.108;2024-02-28T01:40:25;14.33;;;11.00;;
22017;SDS011;11173;51.050;7.108;2024-02-28T01:50:44;11.20;;;9.48;;
22017;SDS011;11173;51.050;7.108;2024-02-28T02:01:04;6.63;;;5.80;;
22017;SDS011;11173;51.050;7.108;2024-02-28T02:11:25;5.80;;;5.15;;
22017;SDS011;11173;51.050;7.108;2024-02-28T02:21:48;6.63;;;5.15;;
22017;SDS011;11173;51.050;7.108;2024-02-28T02:32:08;6.05;;;5.45;;
22017;SDS011;11173;51.050;7.108;2024-02-28T02:42:27;11.32;;;8.40;;
22017;SDS011;11173;51.050;7.108;2024-02-28T02:52:46;10.27;;;7.80;;
22017;SDS011;11173;51.050;7.108;2024-02-28T03:03:05;11.55;;;8.32;;
22017;SDS011;11173;51.050;7.108;2024-02-28T03:13:24;8.75;;;6.28;;
22017;SDS011;11173;51.050;7.108;2024-02-28T03:23:43;4.35;;;3.72;;
22017;SDS011;11173;51.050;7.108;2024-02-28T03:34:02;30.63;;;18.30;;
22017;SDS011;11173;51.050;7.108;2024-02-28T03:44:21;19.93;;;13.77;;
22017;SDS011;11173;51.050;7.108;2024-02-28T03:54:42;19.57;;;12.57;;
22017;SDS011;11173;51.050;7.108;2024-02-28T04:05:00;19.73;;;12.95;;
22017;SDS011;11173;51.050;7.108;2024-02-28T04:15:19;18.30;;;12.50;;
22017;SDS011;11173;51.050;7.108;2024-02-28T04:25:38;15.75;;;10.52;;
22017;SDS011;11173;51.050;7.108;2024-02-28T04:35:59;14.77;;;9.82;;
22017;SDS011;11173;51.050;7.108;2024-02-28T04:46:18;14.03;;;9.40;;
22017;SDS011;11173;51.050;7.108;2024-02-28T04:56:40;20.35;;;13.18;;
22017;SDS011;11173;51.050;7.108;2024-02-28T05:06:59;12.70;;;8.23;;
22017;SDS011;11173;51.050;7.108;2024-02-28T05:17:18;10.90;;;7.33;;
22017;SDS011;11173;51.050;7.108;2024-02-28T05:27:37;9.40;;;6.37;;
22017;SDS011;11173;51.050;7.108;2024-02-28T05:37:56;12.37;;;8.33;;
22017;SDS011;11173;51.050;7.108;2024-02-28T05:48:15;14.40;;;9.67;;
22017;SDS011;11173;51.050;7.108;2024-02-28T05:58:34;8.43;;;5.90;;
22017;SDS011;11173;51.050;7.108;2024-02-28T06:08:53;9.93;;;7.73;;
22017;SDS011;11173;51.050;7.108;2024-02-28T06:19:12;9.47;;;7.10;;
22017;SDS011;11173;51.050;7.108;2024-02-28T06:29:31;7.30;;;5.90;;
22017;SDS011;11173;51.050;7.108;2024-02-28T06:39:53;3.80;;;3.40;;
22017;SDS011;11173;51.050;7.108;2024-02-28T06:50:11;6.33;;;4.70;;
22017;SDS011;11173;51.050;7.108;2024-02-28T07:00:31;5.90;;;4.20;;
22017;SDS011;11173;51.050;7.108;2024-02-28T07:10:50;6.37;;;4.40;;
22017;SDS011;11173;51.050;7.108;2024-02-28T07:21:12;3.17;;;2.88;;
22017;SDS011;11173;51.050;7.108;2024-02-28T07:31:31;6.70;;;4.67;;
22017;SDS011;11173;51.050;7.108;2024-02-28T07:41:50;6.03;;;4.83;;
22017;SDS011;11173;51.050;7.108;2024-02-28T07:52:09;7.88;;;5.70;;
22017;SDS011;11173;51.050;7.108;2024-02-28T08:02:28;9.67;;;6.87;;
22017;SDS011;11173;51.050;7.108;2024-02-28T08:12:47;6.43;;;5.33;;
22017;SDS011;11173;51.050;7.108;2024-02-28T08:23:06;6.10;;;4.33;;
22017;SDS011;11173;51.050;7.108;2024-02-28T08:33:25;9.03;;;6.00;;
22017;SDS011;11173;51.050;7.108;2024-02-28T08:43:44;5.90;;;5.03;;
22017;SDS011;11173;51.050;7.108;2024-02-28T08:54:03;9.17;;;5.57;;
22017;SDS011;11173;51.050;7.108;2024-02-28T09:04:22;7.00;;;5.25;;
22017;SDS011;11173;51.050;7.108;2024-02-28T09:14:41;7.07;;;5.33;;
22017;SDS011;11173;51.050;7.108;2024-02-28T09:25:00;7.73;;;5.57;;
22017;SDS011;11173;51.050;7.108;2024-02-28T09:35:22;7.85;;;5.85;;
22017;SDS011;11173;51.050;7.108;2024-02-28T09:45:42;6.70;;;5.60;;
22017;SDS011;11173;51.050;7.108;2024-02-28T09:56:00;12.10;;;8.50;;
22017;SDS011;11173;51.050;7.108;2024-02-28T10:06:20;16.50;;;10.80;;
22017;SDS011;11173;51.050;7.108;2024-02-28T10:16:39;10.63;;;8.23;;
22017;SDS011;11173;51.050;7.108;2024-02-28T10:27:00;9.33;;;7.67;;
22017;SDS011;11173;51.050;7.108;2024-02-28T10:37:19;8.55;;;6.43;;
22017;SDS011;11173;51.050;7.108;2024-02-28T10:47:38;8.90;;;7.38;;
22017;SDS011;11173;51.050;7.108;2024-02-28T10:58:06;6.33;;;5.67;;
22017;SDS011;11173;51.050;7.108;2024-02-28T11:08:29;7.95;;;6.20;;
22017;SDS011;11173;51.050;7.108;2024-02-28T11:18:48;8.60;;;6.25;;
22017;SDS011;11173;51.050;7.108;2024-02-28T11:29:08;12.75;;;8.95;;
22017;SDS011;11173;51.050;7.108;2024-02-28T11:39:27;6.63;;;5.37;;
22017;SDS011;11173;51.050;7.108;2024-02-28T11:49:46;7.30;;;6.10;;
22017;SDS011;11173;51.050;7.108;2024-02-28T12:00:08;8.13;;;6.73;;
22017;SDS011;11173;51.050;7.108;2024-02-28T12:10:31;7.50;;;6.55;;
22017;SDS011;11173;51.050;7.108;2024-02-28T12:20:50;7.50;;;6.00;;
22017;SDS011;11173;51.050;7.108;2024-02-28T12:31:09;18.07;;;13.43;;
22017;SDS011;11173;51.050;7.108;2024-02-28T12:41:30;10.35;;;8.35;;
22017;SDS011;11173;51.050;7.108;2024-02-28T12:51:53;5.38;;;4.88;;
22017;SDS011;11173;51.050;7.108;2024-02-28T13:02:12;17.33;;;11.73;;
22017;SDS011;11173;51.050;7.108;2024-02-28T13:12:31;13.33;;;10.17;;
22017;SDS011;11173;51.050;7.108;2024-02-28T13:22:50;6.32;;;5.70;;
22017;SDS011;11173;51.050;7.108;2024-02-28T13:33:10;8.27;;;6.57;;
22017;SDS011;11173;51.050;7.108;2024-02-28T13:43:29;6.50;;;5.83;;
22017;SDS011;11173;51.050;7.108;2024-02-28T13:53:48;8.13;;;6.60;;
22017;SDS011;11173;51.050;7.108;2024-02-28T14:04:07;5.03;;;4.37;;
22017;SDS011;11173;51.050;7.108;2024-02-28T14:14:26;15.83;;;12.23;;
22017;SDS011;11173;51.050;7.108;2024-02-28T14:35:05;15.25;;;10.40;;
22017;SDS011;11173;51.050;7.108;2024-02-28T14:45:25;10.32;;;8.00;;
22017;SDS011;11173;51.050;7.108;2024-02-28T14:55:46;5.65;;;5.10;;
22017;SDS011;11173;51.050;7.108;2024-02-28T15:06:06;11.53;;;8.87;;
22017;SDS011;11173;51.050;7.108;2024-02-28T15:16:25;21.38;;;15.57;;
22017;SDS011;11173;51.050;7.108;2024-02-28T15:26:44;17.40;;;12.73;;
22017;SDS011;11173;51.050;7.108;2024-02-28T15:37:03;16.80;;;12.27;;
22017;SDS011;11173;51.050;7.108;2024-02-28T15:47:22;8.43;;;6.87;;
22017;SDS011;11173;51.050;7.108;2024-02-28T15:57:41;14.87;;;10.43;;
22017;SDS011;11173;51.050;7.108;2024-02-28T16:08:00;11.20;;;8.80;;
22017;SDS011;11173;51.050;7.108;2024-02-28T16:18:19;19.10;;;13.17;;
22017;SDS011;11173;51.050;7.108;2024-02-28T16:28:38;16.60;;;12.03;;
22017;SDS011;11173;51.050;7.108;2024-02-28T16:38:57;13.93;;;9.87;;
22017;SDS011;11173;51.050;7.108;2024-02-28T16:49:16;12.90;;;9.47;;
22017;SDS011;11173;51.050;7.108;2024-02-28T16:59:38;18.52;;;12.90;;
22017;SDS011;11173;51.050;7.108;2024-02-28T17:09:57;19.90;;;14.33;;
22017;SDS011;11173;51.050;7.108;2024-02-28T17:20:16;26.15;;;15.55;;
22017;SDS011;11173;51.050;7.108;2024-02-28T17:30:35;20.47;;;13.17;;
22017;SDS011;11173;51.050;7.108;2024-02-28T17:40:54;22.43;;;15.07;;
22017;SDS011;11173;51.050;7.108;2024-02-28T17:51:13;24.83;;;13.80;;
22017;SDS011;11173;51.050;7.108;2024-02-28T18:01:33;18.70;;;12.20;;
22017;SDS011;11173;51.050;7.108;2024-02-28T18:11:52;21.90;;;14.53;;
22017;SDS011;11173;51.050;7.108;2024-02-28T18:22:11;24.03;;;15.40;;
22017;SDS011;11173;51.050;7.108;2024-02-28T18:32:30;26.37;;;17.10;;
22017;SDS011;11173;51.050;7.108;2024-02-28T18:42:49;28.03;;;17.87;;
22017;SDS011;11173;51.050;7.108;2024-02-28T18:53:08;22.07;;;14.70;;
22017;SDS011;11173;51.050;7.108;2024-02-28T19:03:27;25.13;;;17.13;;
22017;SDS011;11173;51.050;7.108;2024-02-28T19:13:46;20.77;;;14.47;;
22017;SDS011;11173;51.050;7.108;2024-02-28T19:24:05;30.23;;;18.30;;
22017;SDS011;11173;51.050;7.108;2024-02-28T19:34:24;19.77;;;13.80;;
22017;SDS011;11173;51.050;7.108;2024-02-28T19:44:43;19.50;;;12.37;;
22017;SDS011;11173;51.050;7.108;2024-02-28T19:55:02;16.80;;;12.33;;
22017;SDS011;11173;51.050;7.108;2024-02-28T20:05:23;15.65;;;11.00;;
22017;SDS011;11173;51.050;7.108;2024-02-28T20:15:42;16.53;;;11.90;;
22017;SDS011;11173;51.050;7.108;2024-02-28T20:26:01;7.90;;;6.13;;
22017;SDS011;11173;51.050;7.108;2024-02-28T20:36:22;3.88;;;3.50;;
22017;SDS011;11173;51.050;7.108;2024-02-28T20:46:41;2.87;;;2.53;;
22017;SDS011;11173;51.050;7.108;2024-02-28T20:57:00;3.37;;;2.90;;
22017;SDS011;11173;51.050;7.108;2024-02-28T21:07:19;2.40;;;2.20;;
22017;SDS011;11173;51.050;7.108;2024-02-28T21:17:38;2.80;;;2.60;;
22017;SDS011;11173;51.050;7.108;2024-02-28T21:27:57;2.55;;;2.28;;
22017;SDS011;11173;51.050;7.108;2024-02-28T21:38:16;2.33;;;2.17;;
22017;SDS011;11173;51.050;7.108;2024-02-28T21:48:35;3.00;;;2.73;;
22017;SDS011;11173;51.050;7.108;2024-02-28T21:58:54;2.57;;;2.37;;
22017;SDS011;11173;51.050;7.108;2024-02-28T22:09:13;2.10;;;2.00;;
22017;SDS011;11173;51.050;7.108;2024-02-28T22:19:32;1.90;;;1.80;;
22017;SDS011;11173;51.050;7.108;2024-02-28T22:29:51;2.35;;;2.20;;
22017;SDS011;11173;51.050;7.108;2024-02-28T22:40:10;3.00;;;2.80;;
22017;SDS011;11173;51.050;7.108;2024-02-28T22:50:29;1.97;;;1.87;;
22017;SDS011;11173;51.050;7.108;2024-02-28T23:00:48;2.27;;;2.17;;
22017;SDS011;11173;51.050;7.108;2024-02-28T23:11:07;2.30;;;2.10;;
22017;SDS011;11173;51.050;7.108;2024-02-28T23:21:26;2.30;;;2.10;;
22017;SDS011;11173;51.050;7.108;2024-02-28T23:31:45;2.00;;;1.80;;
22017;SDS011;11173;51.050;7.108;2024-02-28T23:42:04;2.88;;;2.60;;
22017;SDS011;11173;51.050;7.108;2024-02-28T23:52:23;2.83;;;2.63;;
